sensor_id;sensor_type;location;lat;lon;timestamp;pressure;altitude;pressure_sealevel;temperature;humidity
21960;BME280;11144;43.030;25.108;2023-02-22T00:01:19;99034.03;;;9.58;100.00
21960;BME280;11144;43.030;25.108;2023-02-22T00:03:05;99040.91;;;9.62;100.00
21960;BME280;11144;43.030;25.108;2023-02-22T00:04:41;99037.47;;;9.60;100.00
21960;BME280;11144;43.030;25.108;2023-02-22T00:06:16;99027.00;;;9.57;100.00
21960;BME280;11144;43.030;25.108;2023-02-22T00:07:51;99032.28;;;9.57;100.00
21960;BME280;11144;43.030;25.108;2023-02-22T00:09:24;99037.69;;;9.54;100.00
21960;BME280;11144;43.030;25.108;2023-02-22T00:10:58;99028.97;;;9.52;100.00
21960;BME280;11144;43.030;25.108;2023-02-22T00:12:32;99036.78;;;9.55;100.00
21960;BME280;11144;43.030;25.108;2023-02-22T00:14:05;99035.06;;;9.54;100.00
21960;BME280;11144;43.030;25.108;2023-02-22T00:15:39;99042.97;;;9.54;100.00
21960;BME280;11144;43.030;25.108;2023-02-22T00:17:12;99037.81;;;9.51;100.00
21960;BME280;11144;43.030;25.108;2023-02-22T00:18:47;99033.50;;;9.48;100.00
21960;BME280;11144;43.030;25.108;2023-02-22T00:20:21;99036.97;;;9.49;100.00
21960;BME280;11144;43.030;25.108;2023-02-22T00:21:56;99044.91;;;9.49;100.00
21960;BME280;11144;43.030;25.108;2023-02-22T00:23:30;99045.00;;;9.46;100.00
21960;BME280;11144;43.030;25.108;2023-02-22T00:25:03;99042.75;;;9.35;100.00
21960;BME280;11144;43.030;25.108;2023-02-22T00:26:36;99042.13;;;9.29;100.00
21960;BME280;11144;43.030;25.108;2023-02-22T00:28:09;99038.47;;;9.33;100.00
21960;BME280;11144;43.030;25.108;2023-02-22T00:29:43;99029.13;;;9.23;100.00
21960;BME280;11144;43.030;25.108;2023-02-22T00:31:17;99043.75;;;9.33;100.00
21960;BME280;11144;43.030;25.108;2023-02-22T00:32:53;99042.03;;;9.32;100.00
21960;BME280;11144;43.030;25.108;2023-02-22T00:34:27;99043.63;;;9.36;100.00
21960;BME280;11144;43.030;25.108;2023-02-22T00:36:01;99040.16;;;9.34;100.00
21960;BME280;11144;43.030;25.108;2023-02-22T00:37:35;99047.97;;;9.37;100.00
21960;BME280;11144;43.030;25.108;2023-02-22T00:39:12;99041.03;;;9.34;100.00
21960;BME280;11144;43.030;25.108;2023-02-22T00:40:45;99044.53;;;9.35;100.00
21960;BME280;11144;43.030;25.108;2023-02-22T00:42:19;99040.41;;;9.28;100.00
21960;BME280;11144;43.030;25.108;2023-02-22T00:43:51;99036.94;;;9.26;100.00
21960;BME280;11144;43.030;25.108;2023-02-22T00:45:26;99043.16;;;9.25;100.00
21960;BME280;11144;43.030;25.108;2023-02-22T00:47:00;99040.63;;;9.22;100.00
21960;BME280;11144;43.030;25.108;2023-02-22T00:48:32;99040.91;;;9.13;100.00
21960;BME280;11144;43.030;25.108;2023-02-22T00:50:05;99046.53;;;9.04;100.00
21960;BME280;11144;43.030;25.108;2023-02-22T00:51:38;99045.19;;;8.91;100.00
21960;BME280;11144;43.030;25.108;2023-02-22T00:53:13;99038.63;;;8.78;100.00
21960;BME280;11144;43.030;25.108;2023-02-22T00:54:46;99041.38;;;8.75;100.00
21960;BME280;11144;43.030;25.108;2023-02-22T00:56:20;99035.41;;;8.70;100.00
21960;BME280;11144;43.030;25.108;2023-02-22T00:57:54;99038.13;;;8.67;100.00
21960;BME280;11144;43.030;25.108;2023-02-22T00:59:27;99040.94;;;8.61;100.00
21960;BME280;11144;43.030;25.108;2023-02-22T01:01:01;99047.13;;;8.60;100.00
21960;BME280;11144;43.030;25.108;2023-02-22T01:02:35;99045.69;;;8.50;100.00
21960;BME280;11144;43.030;25.108;2023-02-22T01:04:09;99049.78;;;8.32;100.00
21960;BME280;11144;43.030;25.108;2023-02-22T01:05:43;99047.50;;;8.22;100.00
21960;BME280;11144;43.030;25.108;2023-02-22T01:07:17;99046.41;;;8.00;100.00
21960;BME280;11144;43.030;25.108;2023-02-22T01:08:51;99046.41;;;8.00;100.00
21960;BME280;11144;43.030;25.108;2023-02-22T01:10:27;99042.94;;;7.98;100.00
21960;BME280;11144;43.030;25.108;2023-02-22T01:12:00;99047.69;;;7.85;100.00
21960;BME280;11144;43.030;25.108;2023-02-22T01:13:34;99044.22;;;7.85;100.00
21960;BME280;11144;43.030;25.108;2023-02-22T01:15:09;99042.44;;;7.85;100.00
21960;BME280;11144;43.030;25.108;2023-02-22T01:16:41;99051.91;;;7.91;100.00
21960;BME280;11144;43.030;25.108;2023-02-22T01:18:15;99053.66;;;7.92;100.00
21960;BME280;11144;43.030;25.108;2023-02-22T01:19:48;99052.78;;;7.91;100.00
21960;BME280;11144;43.030;25.108;2023-02-22T01:21:22;99048.41;;;7.92;100.00
21960;BME280;11144;43.030;25.108;2023-02-22T01:22:59;99056.06;;;7.99;100.00
21960;BME280;11144;43.030;25.108;2023-02-22T01:24:35;99052.38;;;8.05;100.00
21960;BME280;11144;43.030;25.108;2023-02-22T01:26:09;99046.31;;;8.03;100.00
21960;BME280;11144;43.030;25.108;2023-02-22T01:27:42;99050.53;;;8.08;100.00
21960;BME280;11144;43.030;25.108;2023-02-22T01:29:15;99047.94;;;8.07;100.00
21960;BME280;11144;43.030;25.108;2023-02-22T01:30:49;99047.81;;;8.10;100.00
21960;BME280;11144;43.030;25.108;2023-02-22T01:32:22;99040.75;;;8.12;100.00
21960;BME280;11144;43.030;25.108;2023-02-22T01:33:54;99044.31;;;8.11;100.00
21960;BME280;11144;43.030;25.108;2023-02-22T01:35:29;99054.63;;;8.17;100.00
21960;BME280;11144;43.030;25.108;2023-02-22T01:37:02;99052.81;;;8.19;100.00
21960;BME280;11144;43.030;25.108;2023-02-22T01:38:35;99046.94;;;8.11;100.00
21960;BME280;11144;43.030;25.108;2023-02-22T01:40:14;99052.31;;;8.06;100.00
21960;BME280;11144;43.030;25.108;2023-02-22T01:41:48;99038.53;;;7.98;100.00
21960;BME280;11144;43.030;25.108;2023-02-22T01:43:27;99044.94;;;7.90;100.00
21960;BME280;11144;43.030;25.108;2023-02-22T01:47:07;99037.69;;;7.67;100.00
21960;BME280;11144;43.030;25.108;2023-02-22T01:48:42;99040.72;;;7.54;100.00
21960;BME280;11144;43.030;25.108;2023-02-22T01:50:16;99037.31;;;7.52;100.00
21960;BME280;11144;43.030;25.108;2023-02-22T01:51:53;99038.91;;;7.57;100.00
21960;BME280;11144;43.030;25.108;2023-02-22T01:53:30;99044.00;;;7.62;100.00
21960;BME280;11144;43.030;25.108;2023-02-22T01:55:05;99038.84;;;7.59;100.00
21960;BME280;11144;43.030;25.108;2023-02-22T01:56:46;99031.09;;;7.54;100.00
21960;BME280;11144;43.030;25.108;2023-02-22T01:58:24;99033.75;;;7.53;100.00
21960;BME280;11144;43.030;25.108;2023-02-22T02:00:02;99040.81;;;7.51;100.00
21960;BME280;11144;43.030;25.108;2023-02-22T02:01:43;99034.59;;;7.55;100.00
21960;BME280;11144;43.030;25.108;2023-02-22T02:03:20;99036.66;;;7.44;100.00
21960;BME280;11144;43.030;25.108;2023-02-22T02:04:53;99023.59;;;7.41;100.00
21960;BME280;11144;43.030;25.108;2023-02-22T02:06:31;99036.59;;;7.45;100.00
21960;BME280;11144;43.030;25.108;2023-02-22T02:08:11;99033.84;;;7.50;100.00
21960;BME280;11144;43.030;25.108;2023-02-22T02:09:51;99030.13;;;7.57;100.00
21960;BME280;11144;43.030;25.108;2023-02-22T02:11:27;99035.22;;;7.63;100.00
21960;BME280;11144;43.030;25.108;2023-02-22T02:13:04;99033.22;;;7.71;100.00
21960;BME280;11144;43.030;25.108;2023-02-22T02:14:37;99041.16;;;7.69;100.00
21960;BME280;11144;43.030;25.108;2023-02-22T02:16:11;99035.31;;;7.60;100.00
21960;BME280;11144;43.030;25.108;2023-02-22T02:17:44;99034.59;;;7.55;100.00
21960;BME280;11144;43.030;25.108;2023-02-22T02:19:36;99040.66;;;7.57;100.00
21960;BME280;11144;43.030;25.108;2023-02-22T02:21:40;99035.31;;;7.60;100.00
21960;BME280;11144;43.030;25.108;2023-02-22T02:23:33;99043.31;;;7.55;100.00
21960;BME280;11144;43.030;25.108;2023-02-22T02:25:49;99045.91;;;7.57;100.00
21960;BME280;11144;43.030;25.108;2023-02-22T02:27:26;99049.38;;;7.59;100.00
21960;BME280;11144;43.030;25.108;2023-02-22T02:31:29;99044.88;;;7.32;100.00
21960;BME280;11144;43.030;25.108;2023-02-22T02:33:15;99039.78;;;7.26;100.00
21960;BME280;11144;43.030;25.108;2023-02-22T02:34:56;99043.16;;;7.31;100.00
21960;BME280;11144;43.030;25.108;2023-02-22T02:36:36;99037.72;;;7.37;100.00
21960;BME280;11144;43.030;25.108;2023-02-22T02:38:18;99031.56;;;7.38;100.00
21960;BME280;11144;43.030;25.108;2023-02-22T02:39:58;99046.44;;;7.39;100.00
21960;BME280;11144;43.030;25.108;2023-02-22T02:41:36;99035.91;;;7.39;100.00
21960;BME280;11144;43.030;25.108;2023-02-22T02:43:14;99030.72;;;7.36;100.00
21960;BME280;11144;43.030;25.108;2023-02-22T02:44:54;99052.56;;;7.39;100.00
21960;BME280;11144;43.030;25.108;2023-02-22T02:46:31;99042.03;;;7.39;100.00
21960;BME280;11144;43.030;25.108;2023-02-22T02:48:08;99038.56;;;7.37;100.00
21960;BME280;11144;43.030;25.108;2023-02-22T02:49:47;99043.00;;;7.37;100.00
21960;BME280;11144;43.030;25.108;2023-02-22T02:51:27;99037.72;;;7.37;100.00
21960;BME280;11144;43.030;25.108;2023-02-22T02:53:04;99043.06;;;7.34;100.00
21960;BME280;11144;43.030;25.108;2023-02-22T02:54:41;99030.13;;;7.26;100.00
21960;BME280;11144;43.030;25.108;2023-02-22T02:56:17;99041.66;;;7.21;100.00
21960;BME280;11144;43.030;25.108;2023-02-22T02:57:52;99041.59;;;7.24;100.00
21960;BME280;11144;43.030;25.108;2023-02-22T02:59:26;99041.50;;;7.27;100.00
21960;BME280;11144;43.030;25.108;2023-02-22T03:01:02;99044.97;;;7.29;100.00
21960;BME280;11144;43.030;25.108;2023-02-22T03:02:43;99041.78;;;7.18;100.00
21960;BME280;11144;43.030;25.108;2023-02-22T03:04:29;99042.13;;;7.04;100.00
21960;BME280;11144;43.030;25.108;2023-02-22T03:06:37;99039.66;;;6.98;100.00
21960;BME280;11144;43.030;25.108;2023-02-22T03:08:19;99041.34;;;7.00;100.00
21960;BME280;11144;43.030;25.108;2023-02-22T03:10:06;99035.25;;;6.98;100.00
21960;BME280;11144;43.030;25.108;2023-02-22T03:11:50;99033.75;;;6.90;100.00
21960;BME280;11144;43.030;25.108;2023-02-22T03:13:38;99039.13;;;6.85;100.00
21960;BME280;11144;43.030;25.108;2023-02-22T03:15:18;99031.19;;;6.87;100.00
21960;BME280;11144;43.030;25.108;2023-02-22T03:17:00;99029.72;;;6.75;100.00
21960;BME280;11144;43.030;25.108;2023-02-22T03:18:43;99031.63;;;6.70;100.00
21960;BME280;11144;43.030;25.108;2023-02-22T03:20:27;99042.81;;;6.78;100.00
21960;BME280;11144;43.030;25.108;2023-02-22T03:22:10;99043.56;;;6.82;100.00
21960;BME280;11144;43.030;25.108;2023-02-22T03:23:48;99034.00;;;6.79;100.00
21960;BME280;11144;43.030;25.108;2023-02-22T03:25:28;99043.56;;;6.82;100.00
21960;BME280;11144;43.030;25.108;2023-02-22T03:27:06;99035.91;;;6.74;100.00
21960;BME280;11144;43.030;25.108;2023-02-22T03:28:47;99027.31;;;6.68;100.00
21960;BME280;11144;43.030;25.108;2023-02-22T03:30:23;99037.75;;;6.69;100.00
21960;BME280;11144;43.030;25.108;2023-02-22T03:31:59;99034.47;;;6.61;100.00
21960;BME280;11144;43.030;25.108;2023-02-22T03:33:40;99032.81;;;6.57;100.00
21960;BME280;11144;43.030;25.108;2023-02-22T03:35:18;99033.06;;;6.48;100.00
21960;BME280;11144;43.030;25.108;2023-02-22T03:36:56;99046.16;;;6.50;100.00
21960;BME280;11144;43.030;25.108;2023-02-22T03:38:35;99034.78;;;6.49;100.00
21960;BME280;11144;43.030;25.108;2023-02-22T03:40:13;99032.22;;;6.46;100.00
21960;BME280;11144;43.030;25.108;2023-02-22T03:41:50;99025.66;;;6.29;100.00
21960;BME280;11144;43.030;25.108;2023-02-22T03:43:29;99037.03;;;6.29;100.00
21960;BME280;11144;43.030;25.108;2023-02-22T03:45:10;99040.34;;;6.37;100.00
21960;BME280;11144;43.030;25.108;2023-02-22T03:46:47;99045.34;;;6.46;100.00
21960;BME280;11144;43.030;25.108;2023-02-22T03:48:29;99041.91;;;6.44;100.00
21960;BME280;11144;43.030;25.108;2023-02-22T03:50:30;99043.63;;;6.45;100.00
21960;BME280;11144;43.030;25.108;2023-02-22T03:52:07;99045.34;;;6.46;100.00
21960;BME280;11144;43.030;25.108;2023-02-22T03:53:46;99046.34;;;6.41;100.00
21960;BME280;11144;43.030;25.108;2023-02-22T03:55:22;99043.25;;;6.25;100.00
21960;BME280;11144;43.030;25.108;2023-02-22T03:57:04;99039.09;;;6.15;100.00
21960;BME280;11144;43.030;25.108;2023-02-22T03:58:42;99046.00;;;6.19;100.00
21960;BME280;11144;43.030;25.108;2023-02-22T04:00:22;99044.06;;;6.27;100.00
21960;BME280;11144;43.030;25.108;2023-02-22T04:01:56;99053.56;;;6.33;100.00
21960;BME280;11144;43.030;25.108;2023-02-22T04:03:30;99049.97;;;6.37;100.00
21960;BME280;11144;43.030;25.108;2023-02-22T04:05:04;99046.66;;;6.29;100.00
21960;BME280;11144;43.030;25.108;2023-02-22T04:06:38;99049.38;;;6.24;100.00
21960;BME280;11144;43.030;25.108;2023-02-22T04:08:12;99040.56;;;6.27;100.00
21960;BME280;11144;43.030;25.108;2023-02-22T04:09:47;99040.41;;;6.34;100.00
21960;BME280;11144;43.030;25.108;2023-02-22T04:11:23;99048.25;;;6.36;100.00
21960;BME280;11144;43.030;25.108;2023-02-22T04:12:57;99038.69;;;6.33;100.00
21960;BME280;11144;43.030;25.108;2023-02-22T04:14:30;99033.56;;;6.27;100.00
21960;BME280;11144;43.030;25.108;2023-02-22T04:16:04;99039.50;;;6.35;100.00
21960;BME280;11144;43.030;25.108;2023-02-22T04:17:36;99031.53;;;6.38;100.00
21960;BME280;11144;43.030;25.108;2023-02-22T04:19:12;99036.78;;;6.38;100.00
21960;BME280;11144;43.030;25.108;2023-02-22T04:20:45;99039.41;;;6.38;100.00
21960;BME280;11144;43.030;25.108;2023-02-22T04:22:31;99050.78;;;6.40;100.00
21960;BME280;11144;43.030;25.108;2023-02-22T04:24:05;99040.34;;;6.37;100.00
21960;BME280;11144;43.030;25.108;2023-02-22T04:25:40;99037.81;;;6.33;100.00
21960;BME280;11144;43.030;25.108;2023-02-22T04:27:19;99033.38;;;6.36;100.00
21960;BME280;11144;43.030;25.108;2023-02-22T04:28:53;99045.50;;;6.40;100.00
21960;BME280;11144;43.030;25.108;2023-02-22T04:30:28;99039.31;;;6.43;100.00
21960;BME280;11144;43.030;25.108;2023-02-22T04:32:01;99045.50;;;6.40;100.00
21960;BME280;11144;43.030;25.108;2023-02-22T04:33:35;99049.19;;;6.33;100.00
21960;BME280;11144;43.030;25.108;2023-02-22T04:35:09;99036.19;;;6.27;100.00
21960;BME280;11144;43.030;25.108;2023-02-22T04:36:41;99042.41;;;6.23;100.00
21960;BME280;11144;43.030;25.108;2023-02-22T04:38:16;99040.69;;;6.22;100.00
21960;BME280;11144;43.030;25.108;2023-02-22T04:39:51;99042.69;;;6.11;100.00
21960;BME280;11144;43.030;25.108;2023-02-22T04:41:27;99044.41;;;6.12;100.00
21960;BME280;11144;43.030;25.108;2023-02-22T04:43:02;99053.25;;;6.08;100.00
21960;BME280;11144;43.030;25.108;2023-02-22T04:44:36;99062.13;;;6.03;100.00
21960;BME280;11144;43.030;25.108;2023-02-22T04:46:09;99044.75;;;5.97;100.00
21960;BME280;11144;43.030;25.108;2023-02-22T04:47:43;99054.59;;;5.88;100.00
21960;BME280;11144;43.030;25.108;2023-02-22T04:49:16;99043.28;;;5.84;100.00
21960;BME280;11144;43.030;25.108;2023-02-22T04:50:51;99040.81;;;5.77;100.00
21960;BME280;11144;43.030;25.108;2023-02-22T04:52:24;99050.44;;;5.76;100.00
21960;BME280;11144;43.030;25.108;2023-02-22T04:53:57;99048.66;;;5.78;100.00
21960;BME280;11144;43.030;25.108;2023-02-22T04:55:31;99046.84;;;5.80;100.00
21960;BME280;11144;43.030;25.108;2023-02-22T04:57:07;99053.88;;;5.81;100.00
21960;BME280;11144;43.030;25.108;2023-02-22T04:58:40;99048.53;;;5.84;100.00
21960;BME280;11144;43.030;25.108;2023-02-22T05:00:16;99052.06;;;5.83;100.00
21960;BME280;11144;43.030;25.108;2023-02-22T05:01:50;99050.28;;;5.85;100.00
21960;BME280;11144;43.030;25.108;2023-02-22T05:03:22;99046.81;;;5.83;100.00
21960;BME280;11144;43.030;25.108;2023-02-22T05:04:55;99048.72;;;5.75;100.00
21960;BME280;11144;43.030;25.108;2023-02-22T05:06:28;99058.31;;;5.75;100.00
21960;BME280;11144;43.030;25.108;2023-02-22T05:08:02;99057.44;;;5.77;100.00
21960;BME280;11144;43.030;25.108;2023-02-22T05:09:34;99057.34;;;5.80;100.00
21960;BME280;11144;43.030;25.108;2023-02-22T05:11:07;99055.63;;;5.79;100.00
21960;BME280;11144;43.030;25.108;2023-02-22T05:12:42;99064.28;;;5.84;100.00
21960;BME280;11144;43.030;25.108;2023-02-22T05:14:15;99058.19;;;5.84;100.00
21960;BME280;11144;43.030;25.108;2023-02-22T05:15:49;99061.72;;;5.83;100.00
21960;BME280;11144;43.030;25.108;2023-02-22T05:17:22;99064.38;;;5.81;100.00
21960;BME280;11144;43.030;25.108;2023-02-22T05:18:54;99064.28;;;5.84;100.00
21960;BME280;11144;43.030;25.108;2023-02-22T05:20:30;99055.59;;;5.82;100.00
21960;BME280;11144;43.030;25.108;2023-02-22T05:22:04;99066.31;;;5.70;100.00
21960;BME280;11144;43.030;25.108;2023-02-22T05:23:37;99069.81;;;5.69;100.00
21960;BME280;11144;43.030;25.108;2023-02-22T05:25:10;99078.50;;;5.73;100.00
21960;BME280;11144;43.030;25.108;2023-02-22T05:26:44;99076.59;;;5.79;100.00
21960;BME280;11144;43.030;25.108;2023-02-22T05:28:19;99072.22;;;5.80;100.00
21960;BME280;11144;43.030;25.108;2023-02-22T05:29:51;99067.00;;;5.81;100.00
21960;BME280;11144;43.030;25.108;2023-02-22T05:31:24;99064.44;;;5.75;100.00
21960;BME280;11144;43.030;25.108;2023-02-22T05:32:57;99055.06;;;5.64;100.00
21960;BME280;11144;43.030;25.108;2023-02-22T05:34:31;99073.34;;;5.68;100.00
21960;BME280;11144;43.030;25.108;2023-02-22T05:36:05;99088.19;;;5.68;100.00
21960;BME280;11144;43.030;25.108;2023-02-22T05:37:39;99082.22;;;5.61;100.00
21960;BME280;11144;43.030;25.108;2023-02-22T05:39:12;99076.13;;;5.61;100.00
21960;BME280;11144;43.030;25.108;2023-02-22T05:40:46;99087.34;;;5.67;100.00
21960;BME280;11144;43.030;25.108;2023-02-22T05:42:19;99085.53;;;5.69;100.00
21960;BME280;11144;43.030;25.108;2023-02-22T05:43:54;99083.75;;;5.73;100.00
21960;BME280;11144;43.030;25.108;2023-02-22T05:45:27;99095.84;;;5.81;100.00
21960;BME280;11144;43.030;25.108;2023-02-22T05:47:01;99092.25;;;5.85;100.00
21960;BME280;11144;43.030;25.108;2023-02-22T05:48:35;99092.16;;;5.88;100.00
21960;BME280;11144;43.030;25.108;2023-02-22T05:50:09;99085.44;;;6.16;100.00
21960;BME280;11144;43.030;25.108;2023-02-22T05:51:42;99101.41;;;6.45;100.00
21960;BME280;11144;43.030;25.108;2023-02-22T05:53:15;99100.59;;;6.78;100.00
21960;BME280;11144;43.030;25.108;2023-02-22T05:54:49;99106.91;;;7.07;100.00
21960;BME280;11144;43.030;25.108;2023-02-22T05:56:24;99104.03;;;7.16;100.00
21960;BME280;11144;43.030;25.108;2023-02-22T05:57:58;99108.31;;;7.20;100.00
21960;BME280;11144;43.030;25.108;2023-02-22T05:59:34;99103.88;;;7.22;100.00
21960;BME280;11144;43.030;25.108;2023-02-22T06:01:07;99113.47;;;7.23;100.00
21960;BME280;11144;43.030;25.108;2023-02-22T06:02:40;99107.44;;;7.19;100.00
21960;BME280;11144;43.030;25.108;2023-02-22T06:04:13;99107.69;;;7.10;100.00
21960;BME280;11144;43.030;25.108;2023-02-22T06:05:47;99109.44;;;7.09;100.00
21960;BME280;11144;43.030;25.108;2023-02-22T06:07:20;99115.66;;;7.05;100.00
21960;BME280;11144;43.030;25.108;2023-02-22T06:08:53;99112.31;;;7.00;100.00
21960;BME280;11144;43.030;25.108;2023-02-22T06:10:27;99112.38;;;6.97;100.00
21960;BME280;11144;43.030;25.108;2023-02-22T06:12:00;99114.22;;;6.94;100.00
21960;BME280;11144;43.030;25.108;2023-02-22T06:13:33;99112.53;;;6.91;100.00
21960;BME280;11144;43.030;25.108;2023-02-22T06:15:08;99114.28;;;6.92;100.00
21960;BME280;11144;43.030;25.108;2023-02-22T06:16:41;99115.25;;;6.88;100.00
21960;BME280;11144;43.030;25.108;2023-02-22T06:18:15;99125.63;;;6.93;100.00
21960;BME280;11144;43.030;25.108;2023-02-22T06:19:48;99124.72;;;6.95;100.00
21960;BME280;11144;43.030;25.108;2023-02-22T06:21:21;99118.44;;;7.01;100.00
21960;BME280;11144;43.030;25.108;2023-02-22T06:22:56;99110.59;;;6.99;100.00
21960;BME280;11144;43.030;25.108;2023-02-22T06:24:29;99117.69;;;7.30;100.00
21960;BME280;11144;43.030;25.108;2023-02-22T06:26:03;99119.06;;;7.75;100.00
21960;BME280;11144;43.030;25.108;2023-02-22T06:27:36;99124.66;;;8.24;100.00
21960;BME280;11144;43.030;25.108;2023-02-22T06:29:08;99124.91;;;8.73;100.00
21960;BME280;11144;43.030;25.108;2023-02-22T06:30:43;99117.47;;;9.11;100.00
21960;BME280;11144;43.030;25.108;2023-02-22T06:32:17;99120.53;;;9.50;100.00
21960;BME280;11144;43.030;25.108;2023-02-22T06:33:50;99105.63;;;9.72;100.00
21960;BME280;11144;43.030;25.108;2023-02-22T06:35:23;99102.50;;;10.10;100.00
21960;BME280;11144;43.030;25.108;2023-02-22T06:36:56;99115.25;;;10.67;100.00
21960;BME280;11144;43.030;25.108;2023-02-22T06:38:31;99114.09;;;11.15;100.00
21960;BME280;11144;43.030;25.108;2023-02-22T06:40:04;99117.47;;;11.60;100.00
21960;BME280;11144;43.030;25.108;2023-02-22T06:41:38;99111.00;;;11.87;100.00
21960;BME280;11144;43.030;25.108;2023-02-22T06:43:11;99104.03;;;12.23;100.00
21960;BME280;11144;43.030;25.108;2023-02-22T06:44:45;99111.81;;;12.26;100.00
21960;BME280;11144;43.030;25.108;2023-02-22T06:46:21;99109.63;;;12.54;100.00
21960;BME280;11144;43.030;25.108;2023-02-22T06:47:54;99121.91;;;12.92;100.00
21960;BME280;11144;43.030;25.108;2023-02-22T06:49:28;99115.84;;;13.26;100.00
21960;BME280;11144;43.030;25.108;2023-02-22T06:51:01;99114.69;;;13.65;100.00
21960;BME280;11144;43.030;25.108;2023-02-22T06:52:41;99107.59;;;13.99;100.00
21960;BME280;11144;43.030;25.108;2023-02-22T06:54:14;99116.63;;;14.29;100.00
21960;BME280;11144;43.030;25.108;2023-02-22T06:55:47;99112.41;;;14.57;100.00
21960;BME280;11144;43.030;25.108;2023-02-22T06:57:21;99117.00;;;14.85;100.00
21960;BME280;11144;43.030;25.108;2023-02-22T06:58:54;99105.16;;;15.06;100.00
21960;BME280;11144;43.030;25.108;2023-02-22T07:00:28;99115.22;;;15.30;100.00
21960;BME280;11144;43.030;25.108;2023-02-22T07:02:03;99112.06;;;15.69;100.00
21960;BME280;11144;43.030;25.108;2023-02-22T07:03:37;99110.97;;;16.01;100.00
21960;BME280;11144;43.030;25.108;2023-02-22T07:05:11;99114.91;;;16.23;100.00
21960;BME280;11144;43.030;25.108;2023-02-22T07:06:44;99110.44;;;16.52;100.00
21960;BME280;11144;43.030;25.108;2023-02-22T07:08:18;99117.38;;;16.68;100.00
21960;BME280;11144;43.030;25.108;2023-02-22T07:09:52;99113.09;;;16.66;100.00
21960;BME280;11144;43.030;25.108;2023-02-22T07:11:25;99118.97;;;16.85;100.00
21960;BME280;11144;43.030;25.108;2023-02-22T07:12:58;99108.25;;;16.99;100.00
21960;BME280;11144;43.030;25.108;2023-02-22T07:14:32;99125.16;;;17.26;100.00
21960;BME280;11144;43.030;25.108;2023-02-22T07:16:05;99109.38;;;17.62;100.00
21960;BME280;11144;43.030;25.108;2023-02-22T07:17:40;99116.78;;;17.96;100.00
21960;BME280;11144;43.030;25.108;2023-02-22T07:19:13;99110.47;;;18.22;100.00
21960;BME280;11144;43.030;25.108;2023-02-22T07:20:46;99111.88;;;18.53;100.00
21960;BME280;11144;43.030;25.108;2023-02-22T07:22:20;99119.97;;;18.76;100.00
21960;BME280;11144;43.030;25.108;2023-02-22T07:23:54;99117.97;;;19.03;100.00
21960;BME280;11144;43.030;25.108;2023-02-22T07:25:28;99115.53;;;19.24;100.00
21960;BME280;11144;43.030;25.108;2023-02-22T07:27:01;99112.31;;;19.31;100.00
21960;BME280;11144;43.030;25.108;2023-02-22T07:28:34;99109.34;;;19.11;100.00
21960;BME280;11144;43.030;25.108;2023-02-22T07:30:16;99114.47;;;19.26;91.85
21960;BME280;11144;43.030;25.108;2023-02-22T07:31:50;99109.91;;;19.63;100.00
21960;BME280;11144;43.030;25.108;2023-02-22T07:33:25;99110.38;;;20.02;98.17
21960;BME280;11144;43.030;25.108;2023-02-22T07:34:59;99105.53;;;20.19;99.44
21960;BME280;11144;43.030;25.108;2023-02-22T07:36:33;99109.47;;;20.59;98.69
21960;BME280;11144;43.030;25.108;2023-02-22T07:38:07;99107.13;;;20.98;96.59
21960;BME280;11144;43.030;25.108;2023-02-22T07:39:40;99105.50;;;21.18;97.55
21960;BME280;11144;43.030;25.108;2023-02-22T07:41:14;99102.34;;;21.13;91.23
21960;BME280;11144;43.030;25.108;2023-02-22T07:42:52;99095.75;;;21.06;81.29
21960;BME280;11144;43.030;25.108;2023-02-22T07:44:26;99108.25;;;20.96;87.94
21960;BME280;11144;43.030;25.108;2023-02-22T07:46:00;99108.44;;;21.15;85.44
21960;BME280;11144;43.030;25.108;2023-02-22T07:47:34;99101.13;;;21.17;85.50
21960;BME280;11144;43.030;25.108;2023-02-22T07:49:08;99101.50;;;21.12;88.20
21960;BME280;11144;43.030;25.108;2023-02-22T07:50:42;99112.38;;;20.89;81.34
21960;BME280;11144;43.030;25.108;2023-02-22T07:52:15;99102.63;;;20.44;77.09
21960;BME280;11144;43.030;25.108;2023-02-22T07:53:48;99095.03;;;20.27;76.45
21960;BME280;11144;43.030;25.108;2023-02-22T07:55:23;99098.22;;;20.21;75.81
21960;BME280;11144;43.030;25.108;2023-02-22T07:56:57;99099.59;;;20.37;73.51
21960;BME280;11144;43.030;25.108;2023-02-22T07:58:31;99094.94;;;20.28;71.62
21960;BME280;11144;43.030;25.108;2023-02-22T08:00:05;99104.84;;;20.28;70.45
21960;BME280;11144;43.030;25.108;2023-02-22T08:01:43;99095.03;;;20.16;67.42
21960;BME280;11144;43.030;25.108;2023-02-22T08:03:17;99098.13;;;19.87;65.70
21960;BME280;11144;43.030;25.108;2023-02-22T08:04:52;99093.19;;;19.70;64.31
21960;BME280;11144;43.030;25.108;2023-02-22T08:06:25;99103.47;;;19.76;64.83
21960;BME280;11144;43.030;25.108;2023-02-22T08:08:00;99096.81;;;19.93;65.38
21960;BME280;11144;43.030;25.108;2023-02-22T08:09:34;99092.63;;;20.24;65.65
21960;BME280;11144;43.030;25.108;2023-02-22T08:11:08;99102.63;;;20.33;64.57
21960;BME280;11144;43.030;25.108;2023-02-22T08:12:41;99090.41;;;20.29;62.24
21960;BME280;11144;43.030;25.108;2023-02-22T08:14:15;99090.66;;;20.26;61.34
21960;BME280;11144;43.030;25.108;2023-02-22T08:15:50;99086.50;;;20.22;60.66
21960;BME280;11144;43.030;25.108;2023-02-22T08:17:23;99095.78;;;20.29;60.11
21960;BME280;11144;43.030;25.108;2023-02-22T08:18:57;99089.50;;;20.06;59.14
21960;BME280;11144;43.030;25.108;2023-02-22T08:20:32;99088.84;;;19.80;60.02
21960;BME280;11144;43.030;25.108;2023-02-22T08:22:05;99091.94;;;19.63;59.01
21960;BME280;11144;43.030;25.108;2023-02-22T08:23:38;99098.56;;;19.70;59.76